Hacoda, Alabama
Current Conditions -  °F | °C
As of 7:58 AM on Thursday 30 Oct 2014 (Local Time) from K0J4 Reporting Station
Clear Clear  
Wind Chill: 59°   Ceiling: Unl
Heat Index: 59°   Visibility: 10mi
Dew Point: 50°   Wind: 6mph
Humidity: 72%   Direction: 20°NNE
Pressure: 30.09"   Gusts: NA
Location:  31.0519°N, 86.3486°W
Report Text: K0J4 301258Z AUTO 02005KT 10SM CLR 15/10 A3009 RMK AO2 SLP187 T01500100 $
Loading
Personal Weather Stations






























Interactive Weather Map
Tropical Storm Tracking
New forecast layout! Learn more

10-Day Weather Forecast

Advertisements
Track Severe Weather on mobile